createdAt,value
2024-02-02T00:00:55.553Z,102865.28
2024-02-02T00:02:57.397Z,102857.50
2024-02-02T00:04:59.137Z,102863.56
2024-02-02T00:07:01.035Z,102854.97
2024-02-02T00:09:02.888Z,102864.41
2024-02-02T00:11:05.327Z,102858.38
2024-02-02T00:13:07.128Z,102864.41
2024-02-02T00:15:09.819Z,102863.50
2024-02-02T00:17:11.905Z,102862.63
2024-02-02T00:19:14.026Z,102866.13
2024-02-02T00:21:15.899Z,102861.75
2024-02-02T00:23:17.732Z,102862.59
2024-02-02T00:25:19.525Z,102853.13
2024-02-02T00:27:21.458Z,102853.97
2024-02-02T00:29:23.239Z,102850.53
2024-02-02T00:31:24.976Z,102854.84
2024-02-02T00:33:26.835Z,102857.56
2024-02-02T00:35:29.028Z,102861.84
2024-02-02T00:37:31.077Z,102850.56
2024-02-02T00:39:32.836Z,102857.50
2024-02-02T00:41:34.657Z,102859.25
2024-02-02T00:43:36.660Z,102852.38
2024-02-02T00:45:38.404Z,102854.06
2024-02-02T00:47:40.228Z,102863.59
2024-02-02T00:49:42.212Z,102861.91
2024-02-02T00:51:44.090Z,102857.63
2024-02-02T00:53:45.924Z,102855.00
2024-02-02T00:55:47.658Z,102864.53
2024-02-02T00:57:49.500Z,102866.28
2024-02-02T00:59:51.855Z,102855.94
2024-02-02T01:01:53.688Z,102861.97
2024-02-02T01:03:55.842Z,102853.34
2024-02-02T01:05:57.670Z,102861.97
2024-02-02T01:07:59.776Z,102868.03
2024-02-02T01:10:01.673Z,102869.78
2024-02-02T01:12:03.769Z,102868.94
2024-02-02T01:14:05.728Z,102857.72
2024-02-02T01:16:07.776Z,102865.50
2024-02-02T01:18:09.880Z,102861.19
2024-02-02T01:20:15.033Z,102864.69
2024-02-02T01:22:17.227Z,102864.69
2024-02-02T01:24:21.885Z,102861.25
2024-02-02T01:26:24.005Z,102850.84
2024-02-02T01:28:25.803Z,102843.97
2024-02-02T01:30:31.142Z,102841.41
2024-02-02T01:32:33.822Z,102837.97
2024-02-02T01:34:36.137Z,102839.69
2024-02-02T01:36:38.112Z,102840.53
2024-02-02T01:38:39.923Z,102838.81
2024-02-02T01:40:42.557Z,102840.53
2024-02-02T01:42:44.353Z,102848.31
2024-02-02T01:44:46.078Z,102846.59
2024-02-02T01:46:48.521Z,102856.13
2024-02-02T01:48:50.467Z,102848.34
2024-02-02T01:50:52.315Z,102852.69
2024-02-02T01:52:54.253Z,102854.34
2024-02-02T01:54:57.078Z,102850.06
2024-02-02T01:56:58.987Z,102855.28
2024-02-02T01:59:04.378Z,102845.78
2024-02-02T02:01:06.153Z,102833.69
2024-02-02T02:03:08.647Z,102830.25
2024-02-02T02:05:11.070Z,102826.78
2024-02-02T02:07:12.979Z,102822.50
2024-02-02T02:09:15.066Z,102814.72
2024-02-02T02:11:17.240Z,102814.72
2024-02-02T02:13:19.545Z,102817.31
2024-02-02T02:15:21.821Z,102811.25
2024-02-02T02:17:23.678Z,102816.47
2024-02-02T02:19:25.820Z,102809.56
2024-02-02T02:21:28.940Z,102803.50
2024-02-02T02:23:36.697Z,102804.44
2024-02-02T02:25:38.480Z,102805.25
2024-02-02T02:27:40.346Z,102801.84
2024-02-02T02:29:42.133Z,102803.56
2024-02-02T02:31:55.961Z,102794.09
2024-02-02T02:33:58.019Z,102796.66
2024-02-02T02:35:59.994Z,102788.91
2024-02-02T02:38:01.788Z,102774.22
2024-02-02T02:40:03.984Z,102771.63
2024-02-02T02:42:06.129Z,102775.09
2024-02-02T02:44:07.926Z,102764.75
2024-02-02T02:46:10.036Z,102767.31
2024-02-02T02:48:11.946Z,102764.78
2024-02-02T02:50:13.952Z,102757.84
2024-02-02T02:52:15.784Z,102757.84
2024-02-02T02:54:17.675Z,102756.97
2024-02-02T02:56:19.468Z,102750.97
2024-02-02T02:58:21.284Z,102754.44
2024-02-02T03:00:29.631Z,102749.22
2024-02-02T03:02:31.507Z,102750.13
2024-02-02T03:04:33.339Z,102754.44
2024-02-02T03:06:35.262Z,102742.38
2024-02-02T03:08:37.156Z,102751.91
2024-02-02T03:10:39.615Z,102752.78
2024-02-02T03:12:41.435Z,102750.19
2024-02-02T03:14:43.262Z,102753.63
2024-02-02T03:16:45.028Z,102751.06
2024-02-02T03:18:47.003Z,102751.91
2024-02-02T03:20:49.033Z,102744.16
2024-02-02T03:22:51.600Z,102758.00
2024-02-02T03:24:53.409Z,102742.44
2024-02-02T03:26:55.224Z,102739.88
2024-02-02T03:28:57.039Z,102739.88
2024-02-02T03:30:58.787Z,102743.34
2024-02-02T03:33:00.755Z,102729.53
2024-02-02T03:35:02.680Z,102726.09
2024-02-02T03:37:04.692Z,102733.88
2024-02-02T03:39:06.647Z,102730.44
2024-02-02T03:41:08.458Z,102727.00
2024-02-02T03:43:11.792Z,102721.81
2024-02-02T03:45:13.961Z,102703.66
2024-02-02T03:47:15.769Z,102702.84
2024-02-02T03:49:17.657Z,102703.69
2024-02-02T03:51:19.519Z,102703.66
2024-02-02T03:53:21.352Z,102708.03
2024-02-02T03:55:23.288Z,102708.88
2024-02-02T03:57:25.134Z,102707.16
2024-02-02T03:59:26.939Z,102708.88
2024-02-02T04:01:28.780Z,102711.47
2024-02-02T04:03:33.626Z,102699.38
2024-02-02T04:05:35.833Z,102702.03
2024-02-02T04:07:37.669Z,102694.25
2024-02-02T04:09:40.083Z,102678.72
2024-02-02T04:11:41.922Z,102678.72
2024-02-02T04:13:43.697Z,102671.81
2024-02-02T04:15:45.652Z,102664.03
2024-02-02T04:17:47.502Z,102664.91
2024-02-02T04:19:49.331Z,102662.28
2024-02-02T04:21:51.395Z,102667.50
2024-02-02T04:23:53.170Z,102660.59
2024-02-02T04:25:55.017Z,102652.81
2024-02-02T04:27:56.778Z,102658.88
2024-02-02T04:29:58.591Z,102663.19
2024-02-02T04:32:00.331Z,102663.19
2024-02-02T04:34:02.387Z,102654.59
2024-02-02T04:36:04.990Z,102646.84
2024-02-02T04:38:07.831Z,102648.50
2024-02-02T04:40:12.402Z,102651.09
2024-02-02T04:42:14.169Z,102636.47
2024-02-02T04:44:15.951Z,102628.66
2024-02-02T04:46:18.582Z,102629.53
2024-02-02T04:48:20.599Z,102635.56
2024-02-02T04:50:23.538Z,102636.47
2024-02-02T04:52:25.317Z,102631.28
2024-02-02T04:54:27.132Z,102622.66
2024-02-02T04:56:28.945Z,102615.81
2024-02-02T04:58:31.499Z,102621.81
2024-02-02T05:00:33.455Z,102614.03
2024-02-02T05:02:35.324Z,102619.22
2024-02-02T05:04:37.423Z,102627.03
2024-02-02T05:06:39.327Z,102639.97
2024-02-02T05:08:41.097Z,102643.44
2024-02-02T05:10:42.868Z,102647.78
2024-02-02T05:12:45.779Z,102631.41
2024-02-02T05:14:47.597Z,102613.22
2024-02-02T05:16:49.409Z,102623.63
2024-02-02T05:18:52.436Z,102621.91
2024-02-02T05:20:54.352Z,102615.00
2024-02-02T05:22:56.211Z,102603.78
2024-02-02T05:24:58.144Z,102602.03
2024-02-02T05:27:00.470Z,102602.03
2024-02-02T05:29:02.344Z,102606.34
2024-02-02T05:31:04.218Z,102592.53
2024-02-02T05:33:06.492Z,102573.50
2024-02-02T05:35:08.869Z,102574.41
2024-02-02T05:37:10.689Z,102577.00
2024-02-02T05:39:12.557Z,102571.81
2024-02-02T05:41:14.392Z,102557.13
2024-02-02T05:43:16.139Z,102557.16
2024-02-02T05:45:18.153Z,102562.31
2024-02-02T05:47:19.999Z,102555.41
2024-02-02T05:49:21.838Z,102561.47
2024-02-02T05:51:23.776Z,102562.31
2024-02-02T05:53:25.592Z,102557.16
2024-02-02T05:55:27.368Z,102557.16
2024-02-02T05:57:29.282Z,102560.59
2024-02-02T05:59:31.129Z,102565.81
2024-02-02T06:01:33.004Z,102575.31
2024-02-02T06:03:34.891Z,102568.47
2024-02-02T06:05:36.675Z,102571.06
2024-02-02T06:07:39.041Z,102584.88
2024-02-02T06:09:40.899Z,102568.47
2024-02-02T06:11:42.937Z,102557.25
2024-02-02T06:13:44.729Z,102546.91
2024-02-02T06:15:47.578Z,102544.31
2024-02-02T06:17:51.963Z,102540.88
2024-02-02T06:19:55.259Z,102537.47
2024-02-02T06:21:57.248Z,102542.66
2024-02-02T06:23:59.139Z,102541.78
2024-02-02T06:26:01.035Z,102536.59
2024-02-02T06:28:03.572Z,102532.28
2024-02-02T06:30:08.729Z,102528.81
2024-02-02T06:32:10.588Z,102532.28
2024-02-02T06:34:12.383Z,102522.81
2024-02-02T06:36:14.198Z,102517.63
2024-02-02T06:38:15.982Z,102523.69
2024-02-02T06:40:17.761Z,102526.28
2024-02-02T06:42:20.478Z,102522.81
2024-02-02T06:44:22.340Z,102515.91
2024-02-02T06:46:28.079Z,102515.09
2024-02-02T06:48:30.009Z,102509.91
2024-02-02T06:50:32.537Z,102509.91
2024-02-02T06:52:34.355Z,102507.31
2024-02-02T06:54:36.233Z,102515.94
2024-02-02T06:56:48.642Z,102501.28
2024-02-02T06:58:50.756Z,102504.75
2024-02-02T07:00:52.861Z,102503.91
2024-02-02T07:02:55.085Z,102508.22
2024-02-02T07:04:57.879Z,102509.09
2024-02-02T07:07:00.015Z,102514.25
2024-02-02T07:09:25.017Z,102497.03
2024-02-02T07:11:35.654Z,102507.34
2024-02-02T07:13:46.196Z,102503.03
2024-02-02T07:15:48.008Z,102497.84
2024-02-02T07:17:51.350Z,102491.81
2024-02-02T07:19:54.167Z,102488.34
2024-02-02T07:21:56.035Z,102495.25
2024-02-02T07:23:59.298Z,102504.78
2024-02-02T07:26:02.307Z,102501.34
2024-02-02T07:28:06.600Z,102497.06
2024-02-02T07:30:24.728Z,102490.16
2024-02-02T07:32:27.209Z,102497.09
2024-02-02T07:34:43.119Z,102501.41
2024-02-02T07:36:45.624Z,102488.47
2024-02-02T07:38:56.061Z,102491.09
2024-02-02T07:41:13.598Z,102484.22
2024-02-02T07:43:15.460Z,102485.94
2024-02-02T07:45:17.336Z,102473.84
2024-02-02T07:47:19.245Z,102475.59
2024-02-02T07:49:21.172Z,102479.06
2024-02-02T07:51:28.472Z,102477.34
2024-02-02T07:53:30.642Z,102482.56
2024-02-02T07:55:32.478Z,102474.78
2024-02-02T07:57:34.421Z,102486.00
2024-02-02T07:59:36.242Z,102482.56
2024-02-02T08:01:38.159Z,102472.22
2024-02-02T08:03:40.328Z,102461.88
2024-02-02T08:05:42.498Z,102466.19
2024-02-02T08:07:44.252Z,102461.88
2024-02-02T08:09:46.199Z,102464.47
2024-02-02T08:11:48.104Z,102453.19
2024-02-02T08:13:51.334Z,102460.19
2024-02-02T08:15:53.236Z,102448.06
2024-02-02T08:17:55.228Z,102455.84
2024-02-02T08:19:57.224Z,102448.97
2024-02-02T08:21:59.685Z,102452.44
2024-02-02T08:24:02.179Z,102439.47
2024-02-02T08:26:04.129Z,102442.88
2024-02-02T08:28:06.289Z,102454.16
2024-02-02T08:30:15.860Z,102442.03
2024-02-02T08:32:17.836Z,102456.75
2024-02-02T08:34:19.898Z,102455.00
2024-02-02T08:36:21.978Z,102448.09
2024-02-02T08:38:23.778Z,102447.25
2024-02-02T08:40:41.855Z,102439.47
2024-02-02T08:42:44.123Z,102434.28
2024-02-02T08:44:46.546Z,102429.09
2024-02-02T08:46:50.136Z,102424.72
2024-02-02T08:48:52.742Z,102426.50
2024-02-02T08:51:01.988Z,102421.31
2024-02-02T08:53:04.738Z,102415.25
2024-02-02T08:55:21.663Z,102408.34
2024-02-02T08:57:38.283Z,102422.19
2024-02-02T08:59:44.920Z,102403.16
2024-02-02T09:01:46.776Z,102410.06
2024-02-02T09:03:48.989Z,102417.00
2024-02-02T09:05:54.324Z,102403.19
2024-02-02T09:08:27.063Z,102391.09
2024-02-02T09:10:31.874Z,102387.66
2024-02-02T09:12:35.112Z,102387.63
2024-02-02T09:14:37.174Z,102389.38
2024-02-02T09:16:41.605Z,102384.22
2024-02-02T09:18:55.009Z,102387.63
2024-02-02T09:20:56.929Z,102393.72
2024-02-02T09:23:00.630Z,102399.78
2024-02-02T09:25:02.629Z,102396.34
2024-02-02T09:27:05.060Z,102387.69
2024-02-02T09:29:11.013Z,102394.63
2024-02-02T09:31:24.015Z,102410.16
2024-02-02T09:33:32.033Z,102398.94
2024-02-02T09:35:51.507Z,102396.38
2024-02-02T09:37:53.992Z,102409.34
2024-02-02T09:39:59.331Z,102401.56
2024-02-02T09:42:26.642Z,102398.13
2024-02-02T09:44:46.360Z,102398.97
2024-02-02T09:46:48.188Z,102388.63
2024-02-02T09:49:13.054Z,102387.78
2024-02-02T09:51:35.352Z,102390.34
2024-02-02T09:53:55.014Z,102387.78
2024-02-02T09:56:08.781Z,102380.88
2024-02-02T09:58:23.249Z,102391.28
2024-02-02T10:00:54.491Z,102388.69
2024-02-02T10:03:35.736Z,102391.28
2024-02-02T10:05:37.602Z,102381.78
2024-02-02T10:08:10.332Z,102388.69
2024-02-02T10:10:33.112Z,102390.41
2024-02-02T10:12:48.084Z,102388.69
2024-02-02T10:15:03.530Z,102393.91
2024-02-02T10:17:22.289Z,102391.31
2024-02-02T10:19:58.187Z,102380.91
2024-02-02T10:22:31.551Z,102386.13
2024-02-02T10:25:02.128Z,102384.41
2024-02-02T10:27:49.328Z,102386.16
2024-02-02T10:30:23.632Z,102373.16
2024-02-02T10:32:55.084Z,102377.50
2024-02-02T10:35:32.148Z,102371.47
2024-02-02T10:37:37.745Z,102372.31
2024-02-02T10:39:56.879Z,102364.53
2024-02-02T10:42:42.774Z,102356.75
2024-02-02T10:44:53.680Z,102350.72
2024-02-02T10:47:05.231Z,102345.50
2024-02-02T10:49:26.497Z,102353.31
2024-02-02T10:51:55.219Z,102357.66
2024-02-02T10:54:53.573Z,102348.13
2024-02-02T10:57:17.437Z,102348.16
2024-02-02T10:59:57.814Z,102332.56
2024-02-02T11:02:06.504Z,102333.44
2024-02-02T11:04:14.089Z,102336.03
2024-02-02T11:06:36.973Z,102334.31
2024-02-02T11:08:42.962Z,102332.56
2024-02-02T11:11:02.368Z,102338.66
2024-02-02T11:13:37.096Z,102338.63
2024-02-02T11:16:07.468Z,102332.59
2024-02-02T11:18:24.988Z,102323.94
2024-02-02T11:20:48.825Z,102323.94
2024-02-02T11:23:03.521Z,102327.38
2024-02-02T11:25:49.766Z,102322.22
2024-02-02T11:27:54.717Z,102315.28
2024-02-02T11:30:09.676Z,102309.25
2024-02-02T11:32:45.016Z,102309.22
2024-02-02T11:35:05.264Z,102304.91
2024-02-02T11:37:19.012Z,102308.38
2024-02-02T11:39:55.046Z,102296.25
2024-02-02T11:41:59.887Z,102306.66
2024-02-02T11:44:05.042Z,102300.59
2024-02-02T11:46:09.574Z,102304.91
2024-02-02T11:48:40.546Z,102304.06
2024-02-02T11:50:48.805Z,102307.53
2024-02-02T11:52:58.900Z,102300.63
2024-02-02T11:55:27.920Z,102283.28
2024-02-02T11:57:32.759Z,102279.81
2024-02-02T11:59:40.181Z,102280.69
2024-02-02T12:01:57.920Z,102285.88
2024-02-02T12:04:08.514Z,102280.69
2024-02-02T12:06:16.768Z,102274.63
2024-02-02T12:08:51.749Z,102278.94
2024-02-02T12:10:55.781Z,102277.22
2024-02-02T12:13:03.948Z,102268.56
2024-02-02T12:15:06.390Z,102261.63
2024-02-02T12:17:12.208Z,102256.44
2024-02-02T12:19:14.235Z,102257.28
2024-02-02T12:21:17.060Z,102259.00
2024-02-02T12:23:18.890Z,102257.28
2024-02-02T12:25:20.789Z,102258.16
2024-02-02T12:27:22.657Z,102246.88
2024-02-02T12:29:24.473Z,102241.69
2024-02-02T12:31:26.327Z,102241.66
2024-02-02T12:33:28.332Z,102231.28
2024-02-02T12:35:30.282Z,102229.53
2024-02-02T12:37:43.493Z,102230.41
2024-02-02T12:39:46.700Z,102230.38
2024-02-02T12:41:51.772Z,102234.72
2024-02-02T12:43:53.688Z,102241.63
2024-02-02T12:45:55.489Z,102239.91
2024-02-02T12:47:59.303Z,102239.00
2024-02-02T12:50:01.845Z,102245.09
2024-02-02T12:52:05.582Z,102235.53
2024-02-02T12:54:10.733Z,102226.00
2024-02-02T12:56:14.830Z,102239.84
2024-02-02T12:58:17.271Z,102226.84
2024-02-02T13:00:22.752Z,102232.91
2024-02-02T13:02:27.689Z,102241.59
2024-02-02T13:04:29.829Z,102239.84
2024-02-02T13:06:33.676Z,102233.75
2024-02-02T13:08:38.936Z,102243.28
2024-02-02T13:10:47.269Z,102229.41
2024-02-02T13:12:51.139Z,102230.25
2024-02-02T13:14:52.928Z,102234.59
2024-02-02T13:17:05.851Z,102235.47
2024-02-02T13:19:37.769Z,102226.81
2024-02-02T13:21:40.634Z,102229.41
2024-02-02T13:23:44.298Z,102216.38
2024-02-02T13:25:52.105Z,102229.38
2024-02-02T13:27:55.531Z,102236.31
2024-02-02T13:30:04.354Z,102216.38
2024-02-02T13:32:16.795Z,102211.16
2024-02-02T13:34:18.825Z,102217.25
2024-02-02T13:36:24.089Z,102218.09
2024-02-02T13:38:28.892Z,102216.34
2024-02-02T13:40:31.949Z,102218.09
2024-02-02T13:42:36.897Z,102207.66
2024-02-02T13:44:39.247Z,102206.81
2024-02-02T13:46:47.971Z,102203.31
2024-02-02T13:48:56.397Z,102195.53
2024-02-02T13:51:01.561Z,102197.25
2024-02-02T13:53:05.848Z,102208.53
2024-02-02T13:55:07.983Z,102205.06
2024-02-02T13:57:11.848Z,102195.53
2024-02-02T13:59:20.412Z,102202.44
2024-02-02T14:01:24.043Z,102189.44
2024-02-02T14:03:27.089Z,102194.63
2024-02-02T14:05:29.021Z,102207.66
2024-02-02T14:07:30.888Z,102196.34
2024-02-02T14:09:32.889Z,102193.75
2024-02-02T14:11:34.745Z,102189.41
2024-02-02T14:13:36.864Z,102182.47
2024-02-02T14:15:41.499Z,102184.22
2024-02-02T14:17:43.399Z,102186.81
2024-02-02T14:19:45.485Z,102185.94
2024-02-02T14:21:47.367Z,102183.34
2024-02-02T14:23:49.161Z,102175.53
2024-02-02T14:25:51.433Z,102179.00
2024-02-02T14:27:53.294Z,102182.44
2024-02-02T14:29:55.189Z,102182.47
2024-02-02T14:31:59.286Z,102181.59
2024-02-02T14:34:01.289Z,102176.41
2024-02-02T14:36:04.744Z,102178.97
2024-02-02T14:38:07.466Z,102175.53
2024-02-02T14:40:12.599Z,102176.41
2024-02-02T14:42:14.437Z,102176.38
2024-02-02T14:44:16.230Z,102173.78
2024-02-02T14:46:22.019Z,102175.50
2024-02-02T14:48:23.880Z,102172.03
2024-02-02T14:50:26.788Z,102173.75
2024-02-02T14:52:28.792Z,102183.28
2024-02-02T14:54:32.027Z,102176.38
2024-02-02T14:56:35.506Z,102185.03
2024-02-02T14:58:37.387Z,102178.94
2024-02-02T15:00:45.744Z,102192.84
2024-02-02T15:02:49.841Z,102191.97
2024-02-02T15:04:53.284Z,102181.56
2024-02-02T15:06:55.286Z,102182.41
2024-02-02T15:08:57.974Z,102185.00
2024-02-02T15:11:01.348Z,102182.41
2024-02-02T15:13:05.680Z,102185.03
2024-02-02T15:15:07.862Z,102190.25
2024-02-02T15:17:09.677Z,102185.06
2024-02-02T15:19:11.687Z,102194.63
2024-02-02T15:21:14.872Z,102191.19
2024-02-02T15:23:16.849Z,102192.09
2024-02-02T15:25:18.702Z,102197.28
2024-02-02T15:27:20.521Z,102191.22
2024-02-02T15:29:22.441Z,102192.97
2024-02-02T15:31:24.649Z,102194.72
2024-02-02T15:35:28.588Z,102184.31
2024-02-02T15:37:30.391Z,102186.91
2024-02-02T15:39:37.915Z,102171.34
2024-02-02T15:41:40.535Z,102170.47
2024-02-02T15:43:43.441Z,102166.13
2024-02-02T15:45:45.324Z,102180.00
2024-02-02T15:47:50.463Z,102173.97
2024-02-02T15:49:53.697Z,102180.03
2024-02-02T15:51:56.785Z,102169.63
2024-02-02T15:53:58.757Z,102180.03
2024-02-02T15:56:00.558Z,102169.63
2024-02-02T15:58:02.594Z,102178.28
2024-02-02T16:00:09.884Z,102183.50
2024-02-02T16:02:11.680Z,102181.78
2024-02-02T16:04:13.568Z,102181.78
2024-02-02T16:06:21.336Z,102185.25
2024-02-02T16:08:23.128Z,102170.50
2024-02-02T16:10:25.122Z,102179.16
2024-02-02T16:12:26.990Z,102178.31
2024-02-02T16:14:28.784Z,102183.53
2024-02-02T16:16:30.937Z,102179.16
2024-02-02T16:18:32.959Z,102180.94
2024-02-02T16:20:36.625Z,102193.94
2024-02-02T16:22:43.092Z,102196.50
2024-02-02T16:24:44.926Z,102186.97
2024-02-02T16:26:46.703Z,102185.25
2024-02-02T16:28:49.164Z,102183.50
2024-02-02T16:30:50.971Z,102181.78
2024-02-02T16:32:52.794Z,102174.88
2024-02-02T16:34:54.783Z,102188.72
2024-02-02T16:36:56.618Z,102191.31
2024-02-02T16:38:58.386Z,102194.78
2024-02-02T16:41:00.122Z,102194.78
2024-02-02T16:43:01.941Z,102188.72
2024-02-02T16:45:04.244Z,102182.63
2024-02-02T16:47:06.225Z,102180.91
2024-02-02T16:49:08.661Z,102184.38
2024-02-02T16:51:17.099Z,102190.44
2024-02-02T16:53:19.160Z,102168.78
2024-02-02T16:55:20.932Z,102183.47
2024-02-02T16:57:22.730Z,102174.84
2024-02-02T16:59:24.586Z,102179.16
2024-02-02T17:01:29.982Z,102181.78
2024-02-02T17:03:31.874Z,102187.81
2024-02-02T17:05:33.649Z,102181.75
2024-02-02T17:07:35.643Z,102169.63
2024-02-02T17:09:40.246Z,102178.31
2024-02-02T17:11:42.092Z,102178.31
2024-02-02T17:13:43.922Z,102174.81
2024-02-02T17:15:45.721Z,102178.31
2024-02-02T17:17:47.554Z,102172.25
2024-02-02T17:19:49.435Z,102192.19
2024-02-02T17:21:51.380Z,102183.50
2024-02-02T17:23:53.295Z,102182.66
2024-02-02T17:25:55.455Z,102178.31
2024-02-02T17:27:57.194Z,102182.66
2024-02-02T17:29:58.990Z,102181.78
2024-02-02T17:32:00.938Z,102189.59
2024-02-02T17:34:02.866Z,102195.66
2024-02-02T17:36:11.214Z,102190.47
2024-02-02T17:38:15.397Z,102192.22
2024-02-02T17:40:17.273Z,102188.72
2024-02-02T17:42:19.082Z,102182.66
2024-02-02T17:44:23.667Z,102186.13
2024-02-02T17:46:27.407Z,102181.81
2024-02-02T17:48:29.272Z,102191.34
2024-02-02T17:50:31.247Z,102188.72
2024-02-02T17:52:33.446Z,102180.94
2024-02-02T17:54:35.262Z,102193.06
2024-02-02T17:56:37.008Z,102194.78
2024-02-02T17:58:39.279Z,102201.72
2024-02-02T18:00:41.307Z,102208.66
2024-02-02T18:02:43.268Z,102210.38
2024-02-02T18:04:45.158Z,102210.38
2024-02-02T18:06:47.035Z,102218.19
2024-02-02T18:08:48.876Z,102211.28
2024-02-02T18:10:51.189Z,102223.41
2024-02-02T18:12:53.197Z,102222.50
2024-02-02T18:14:55.369Z,102220.78
2024-02-02T18:16:57.183Z,102225.09
2024-02-02T18:18:59.069Z,102224.22
2024-02-02T18:21:01.008Z,102235.50
2024-02-02T18:23:02.763Z,102228.56
2024-02-02T18:25:05.084Z,102237.22
2024-02-02T18:27:07.267Z,102244.16
2024-02-02T18:29:09.026Z,102239.81
2024-02-02T18:31:10.804Z,102243.28
2024-02-02T18:33:12.690Z,102229.41
2024-02-02T18:35:14.574Z,102233.75
2024-02-02T18:37:16.393Z,102229.44
2024-02-02T18:39:21.214Z,102243.31
2024-02-02T18:41:31.756Z,102233.75
2024-02-02T18:43:33.507Z,102237.22
2024-02-02T18:45:35.313Z,102230.31
2024-02-02T18:47:39.388Z,102227.69
2024-02-02T18:49:41.394Z,102232.88
2024-02-02T18:51:43.307Z,102221.63
2024-02-02T18:53:45.313Z,102219.03
2024-02-02T18:55:50.013Z,102215.53
2024-02-02T18:57:52.068Z,102219.00
2024-02-02T18:59:53.871Z,102224.19
2024-02-02T19:01:56.737Z,102218.13
2024-02-02T19:03:58.641Z,102228.53
2024-02-02T19:06:01.894Z,102226.81
2024-02-02T19:08:04.298Z,102242.44
2024-02-02T19:10:06.292Z,102220.75
2024-02-02T19:12:08.102Z,102220.72
2024-02-02T19:14:13.336Z,102214.66
2024-02-02T19:16:23.364Z,102219.84
2024-02-02T19:18:25.310Z,102204.25
2024-02-02T19:20:27.404Z,102200.78
2024-02-02T19:22:29.354Z,102203.34
2024-02-02T19:24:31.142Z,102203.34
2024-02-02T19:26:33.080Z,102202.50
2024-02-02T19:28:34.933Z,102202.47
2024-02-02T19:30:36.876Z,102205.06
2024-02-02T19:32:38.850Z,102199.00
2024-02-02T19:34:41.802Z,102194.66
2024-02-02T19:36:43.985Z,102193.75
2024-02-02T19:38:47.012Z,102205.91
2024-02-02T19:40:48.791Z,102211.97
2024-02-02T19:42:50.598Z,102219.72
2024-02-02T19:44:52.484Z,102216.28
2024-02-02T19:46:54.386Z,102204.09
2024-02-02T19:48:57.824Z,102197.16
2024-02-02T19:50:59.748Z,102191.09
2024-02-02T19:53:02.007Z,102197.13
2024-02-02T19:55:06.652Z,102201.50
2024-02-02T19:57:08.461Z,102198.00
2024-02-02T19:59:10.298Z,102192.75
2024-02-02T20:01:16.754Z,102202.28
2024-02-02T20:03:18.618Z,102194.47
2024-02-02T20:05:23.627Z,102188.38
2024-02-02T20:07:26.476Z,102187.50
2024-02-02T20:09:28.372Z,102191.81
2024-02-02T20:11:30.795Z,102183.13
2024-02-02T20:13:32.531Z,102190.09
2024-02-02T20:15:34.501Z,102192.66
2024-02-02T20:17:36.501Z,102192.63
2024-02-02T20:19:44.517Z,102193.50
2024-02-02T20:21:47.251Z,102184.81
2024-02-02T20:23:53.013Z,102184.78
2024-02-02T20:25:54.903Z,102179.59
2024-02-02T20:27:56.764Z,102179.59
2024-02-02T20:29:58.523Z,102177.81
2024-02-02T20:32:00.296Z,102170.88
2024-02-02T20:34:02.807Z,102179.50
2024-02-02T20:36:04.998Z,102176.88
2024-02-02T20:38:06.824Z,102176.84
2024-02-02T20:40:09.426Z,102174.25
2024-02-02T20:42:12.349Z,102169.84
2024-02-02T20:44:15.090Z,102177.69
2024-02-02T20:46:16.907Z,102171.56
2024-02-02T20:48:24.156Z,102168.97
2024-02-02T20:50:25.963Z,102166.34
2024-02-02T20:52:27.783Z,102162.88
2024-02-02T20:54:29.688Z,102159.38
2024-02-02T20:56:31.499Z,102154.16
2024-02-02T20:58:33.244Z,102147.19
2024-02-02T21:00:35.664Z,102156.69
2024-02-02T21:02:37.499Z,102154.94
2024-02-02T21:04:39.348Z,102165.38
2024-02-02T21:06:44.222Z,102159.25
2024-02-02T21:08:46.410Z,102161.81
2024-02-02T21:10:48.281Z,102160.03
2024-02-02T21:12:50.082Z,102166.97
2024-02-02T21:14:52.076Z,102161.78
2024-02-02T21:16:53.840Z,102155.69
2024-02-02T21:18:57.908Z,102148.75
2024-02-02T21:20:59.833Z,102151.38
2024-02-02T21:23:01.885Z,102137.41
2024-02-02T21:25:05.994Z,102140.00
2024-02-02T21:27:08.412Z,102137.41
2024-02-02T21:29:10.199Z,102148.66
2024-02-02T21:31:12.127Z,102143.47
2024-02-02T21:33:15.388Z,102147.81
2024-02-02T21:35:18.759Z,102149.53
2024-02-02T21:37:20.601Z,102144.31
2024-02-02T21:39:22.607Z,102139.94
2024-02-02T21:41:25.907Z,102150.34
2024-02-02T21:43:27.732Z,102153.81
2024-02-02T21:45:33.162Z,102150.34
2024-02-02T21:47:35.058Z,102141.59
2024-02-02T21:49:37.647Z,102138.97
2024-02-02T21:51:40.445Z,102139.81
2024-02-02T21:53:43.430Z,102146.75
2024-02-02T21:55:48.451Z,102138.91
2024-02-02T21:57:50.440Z,102137.16
2024-02-02T21:59:52.393Z,102133.75
2024-02-02T22:01:54.199Z,102120.66
2024-02-02T22:03:56.070Z,102132.81
2024-02-02T22:05:57.937Z,102127.59
2024-02-02T22:07:59.731Z,102106.72
2024-02-02T22:10:01.569Z,102124.06
2024-02-02T22:12:03.868Z,102119.69
2024-02-02T22:14:05.647Z,102129.25
2024-02-02T22:16:11.235Z,102124.91
2024-02-02T22:18:13.084Z,102129.19
2024-02-02T22:20:14.884Z,102137.06
2024-02-02T22:22:16.781Z,102132.66
2024-02-02T22:24:18.585Z,102146.56
2024-02-02T22:26:20.847Z,102144.81
2024-02-02T22:28:22.731Z,102140.47
2024-02-02T22:30:28.356Z,102152.59
2024-02-02T22:32:30.181Z,102150.00
2024-02-02T22:34:32.192Z,102134.31
2024-02-02T22:36:34.306Z,102129.09
2024-02-02T22:38:36.156Z,102134.31
2024-02-02T22:40:37.921Z,102131.72
2024-02-02T22:42:39.889Z,102135.19
2024-02-02T22:44:41.771Z,102133.44
2024-02-02T22:46:43.649Z,102139.50
2024-02-02T22:48:46.543Z,102136.00
2024-02-02T22:50:48.409Z,102135.16
2024-02-02T22:52:50.633Z,102140.34
2024-02-02T22:54:52.530Z,102129.88
2024-02-02T22:56:54.405Z,102154.25
2024-02-02T22:58:56.267Z,102143.81
2024-02-02T23:00:58.360Z,102146.41
2024-02-02T23:03:00.161Z,102132.47
2024-02-02T23:05:02.107Z,102130.75
2024-02-02T23:07:05.785Z,102140.31
2024-02-02T23:09:07.645Z,102121.16
2024-02-02T23:11:09.523Z,102131.56
2024-02-02T23:13:11.390Z,102131.56
2024-02-02T23:15:13.267Z,102141.13
2024-02-02T23:17:15.048Z,102139.38
2024-02-02T23:19:16.852Z,102137.66
2024-02-02T23:21:18.787Z,102131.56
2024-02-02T23:23:20.756Z,102131.56
2024-02-02T23:25:22.534Z,102136.75
2024-02-02T23:27:24.383Z,102135.84
2024-02-02T23:29:26.161Z,102138.47
2024-02-02T23:31:27.953Z,102132.34
2024-02-02T23:33:30.356Z,102131.47
2024-02-02T23:35:32.276Z,102127.13
2024-02-02T23:37:34.924Z,102119.31
2024-02-02T23:39:36.753Z,102120.16
2024-02-02T23:41:38.577Z,102116.66
2024-02-02T23:43:40.309Z,102125.34
2024-02-02T23:45:42.307Z,102101.88